Time;durP1;ratioP1;P1;durP2;ratioP2;P2;SDS_P1;SDS_P2;PMS_P1;PMS_P2;Temp;Humidity;BMP_temperature;BMP_pressure;BME280_temperature;BME280_humidity;BME280_pressure;Samples;Min_cycle;Max_cycle;Signal;HPM_P1;HPM_P2
2022/07/13 00:00:02;;;;;;;;;;;23.90;61.30;23.90;99999.00;;;;337519;28;85415;-87
2022/07/13 00:00:14;;;;;;;;;;;23.90;61.30;23.90;99997.00;;;;336450;28;86958;-87
2022/07/13 00:00:26;;;;;;;;;;;23.90;61.30;23.90;99997.00;;;;337396;28;87057;-88
2022/07/13 00:00:38;;;;;;;;;;;23.90;61.20;23.90;99997.00;;;;336435;28;87801;-88
2022/07/13 00:00:50;;;;;;;;;;;23.80;60.90;24.00;99993.00;;;;337051;28;87059;-87
2022/07/13 00:01:02;;;;;;;;;;;23.90;61.00;24.00;99994.00;;;;336398;28;88498;-88
2022/07/13 00:01:14;;;;;;;;;;;23.90;61.20;24.00;99991.00;;;;336296;28;86864;-88
2022/07/13 00:01:28;;;;;;;;;;;23.90;61.10;24.10;99995.00;;;;336504;28;87161;-88
2022/07/13 00:01:39;;;;;;;;;;;23.90;61.10;24.10;99995.00;;;;336235;28;86954;-88
2022/07/13 00:01:51;;;;;;;;;;;23.90;61.00;24.00;99996.00;;;;340485;28;87837;-87
2022/07/13 00:02:03;;;;;;;;;;;23.90;61.30;23.90;99996.00;;;;338805;28;86203;-87
2022/07/13 00:02:15;;;;;;;;;;;23.90;61.40;23.90;99997.00;;;;337268;28;87695;-87
2022/07/13 00:02:27;;;;;;;;;;;23.90;61.20;23.90;99993.00;;;;337581;28;86855;-88
2022/07/13 00:02:39;;;;;;;;;;;23.90;61.10;23.90;100000.00;;;;340347;28;89898;-87
2022/07/13 00:02:50;;;;;;;;;;;23.90;61.30;23.90;99998.00;;;;340225;28;86993;-87
2022/07/13 00:03:03;;;;;;;;;;;23.90;61.50;23.90;99993.00;;;;340346;28;89473;-88
2022/07/13 00:03:15;;;;;;;;;;;23.90;61.20;23.90;100001.00;;;;338765;28;87859;-87
2022/07/13 00:03:27;;;;;;;;;;;23.90;61.40;23.90;99997.00;;;;337706;28;88457;-85
2022/07/13 00:03:39;;;;;;;;;;;23.90;61.60;23.90;99992.00;;;;338628;28;86183;-87
2022/07/13 00:03:51;;;;;;;;;;;23.80;61.50;23.90;99994.00;;;;336390;28;89920;-88
2022/07/13 00:04:04;;;;;;;;;;;23.90;61.30;23.90;99997.00;;;;337579;28;86821;-88
2022/07/13 00:04:16;;;;;;;;;;;23.90;61.40;23.80;99987.00;;;;335073;29;89535;-88
2022/07/13 00:04:28;;;;;;;;;;;23.90;61.30;23.80;99999.00;;;;334884;29;86779;-88
2022/07/13 00:04:40;;;;;;;;;;;23.90;61.40;23.80;99993.00;;;;336339;28;91009;-87
2022/07/13 00:04:51;;;;;;;;;;;23.90;61.50;23.80;99986.00;;;;337445;28;87113;-87
2022/07/13 00:05:06;;;;;;;;;;;23.80;61.60;23.90;100001.00;;;;336524;28;88504;-87
2022/07/13 00:05:18;;;;;;;;;;;23.80;61.30;23.90;99996.00;;;;338518;28;88002;-90
2022/07/13 00:05:29;;;;;;;;;;;23.90;61.30;23.90;100000.00;;;;336367;28;89263;-87
2022/07/13 00:05:41;;;;;;;;;;;23.80;61.30;23.90;100003.00;;;;339074;28;87071;-87
2022/07/13 00:05:53;;;;;;;;;;;23.80;61.10;24.00;100000.00;;;;338965;28;89708;-88
2022/07/13 00:06:05;;;;;;;;;;;23.80;61.20;24.00;99996.00;;;;340292;28;86104;-86
2022/07/13 00:06:17;;;;;;;;;;;23.90;61.30;24.00;99988.00;;;;340472;28;87174;-88
2022/07/13 00:06:29;;;;;;;;;;;23.90;61.20;24.10;99989.00;;;;340380;28;86783;-88
2022/07/13 00:06:41;;;;;;;;;;;23.90;61.00;24.00;99991.00;;;;338987;28;91692;-88
2022/07/13 00:06:52;;;;;;;;;;;23.90;60.90;23.90;99993.00;;;;339902;28;87128;-86
2022/07/13 00:07:04;;;;;;;;;;;23.90;61.20;23.90;99992.00;;;;340387;28;88398;-87
2022/07/13 00:07:16;;;;;;;;;;;23.90;60.90;23.80;99990.00;;;;338806;28;86862;-89
2022/07/13 00:07:28;;;;;;;;;;;23.90;60.90;23.80;99987.00;;;;339048;28;88784;-88
2022/07/13 00:07:39;;;;;;;;;;;23.90;61.20;23.90;99997.00;;;;340098;28;88653;-88
2022/07/13 00:07:51;;;;;;;;;;;23.80;61.00;23.90;99987.00;;;;339162;28;88864;-88
2022/07/13 00:08:03;;;;;;;;;;;23.90;61.00;23.90;99987.00;;;;338857;28;88004;-88
2022/07/13 00:08:15;;;;;;;;;;;23.90;61.00;23.90;99984.00;;;;337924;28;88882;-87
2022/07/13 00:08:27;;;;;;;;;;;23.90;61.10;23.80;99989.00;;;;337572;28;87115;-87
2022/07/13 00:08:39;;;;;;;;;;;23.90;60.70;23.80;99991.00;;;;337658;28;90594;-87
2022/07/13 00:08:51;;;;;;;;;;;23.80;60.70;23.80;99988.00;;;;338805;28;87774;-88
2022/07/13 00:09:03;;;;;;;;;;;23.80;60.70;23.80;99996.00;;;;339142;28;88949;-88
2022/07/13 00:09:14;;;;;;;;;;;23.80;60.80;23.80;99989.00;;;;336104;28;87920;-88
2022/07/13 00:09:26;;;;;;;;;;;23.80;60.70;23.80;99994.00;;;;339001;28;87713;-87
2022/07/13 00:09:38;;;;;;;;;;;23.80;60.70;23.90;99991.00;;;;338865;28;86800;-87
2022/07/13 00:09:50;;;;;;;;;;;23.80;60.60;23.80;99992.00;;;;336606;28;88398;-87
2022/07/13 00:10:02;;;;;;;;;;;23.80;60.70;23.90;99992.00;;;;337503;28;87148;-88
2022/07/13 00:10:14;;;;;;;;;;;23.80;60.80;23.90;99996.00;;;;337779;28;87842;-87
2022/07/13 00:10:26;;;;;;;;;;;23.80;60.90;23.80;99984.00;;;;337549;28;86830;-87
2022/07/13 00:10:38;;;;;;;;;;;23.80;61.10;23.80;99986.00;;;;336303;28;89527;-88
2022/07/13 00:10:50;;;;;;;;;;;23.80;61.20;23.80;99995.00;;;;334897;29;86959;-88
2022/07/13 00:11:02;;;;;;;;;;;23.80;61.20;23.80;99988.00;;;;337699;28;88747;-88
2022/07/13 00:11:14;;;;;;;;;;;23.80;61.20;23.80;99986.00;;;;337521;28;87775;-88
2022/07/13 00:11:25;;;;;;;;;;;23.80;61.20;23.90;99991.00;;;;336114;28;90585;-88
2022/07/13 00:11:37;;;;;;;;;;;23.80;61.00;23.80;99989.00;;;;338814;28;86138;-88
2022/07/13 00:11:49;;;;;;;;;;;23.80;61.70;23.80;99989.00;;;;337776;28;91118;-88
2022/07/13 00:12:01;;;;;;;;;;;23.80;61.00;23.80;99993.00;;;;336286;28;86505;-87
2022/07/13 00:12:13;;;;;;;;;;;23.80;61.20;23.80;99988.00;;;;335094;29;87062;-87
2022/07/13 00:12:25;;;;;;;;;;;23.80;61.20;23.80;99987.00;;;;338817;28;86202;-88
2022/07/13 00:12:36;;;;;;;;;;;23.80;61.20;23.90;99989.00;;;;339120;28;88079;-88
2022/07/13 00:12:48;;;;;;;;;;;23.80;61.10;23.80;99989.00;;;;336154;28;87756;-87
2022/07/13 00:13:00;;;;;;;;;;;23.80;61.40;23.80;99991.00;;;;335043;28;90654;-87
2022/07/13 00:13:12;;;;;;;;;;;23.80;61.40;23.80;99984.00;;;;336237;28;86898;-88
2022/07/13 00:13:24;;;;;;;;;;;23.80;61.20;23.80;99985.00;;;;337722;28;88626;-88
2022/07/13 00:13:35;;;;;;;;;;;23.80;61.40;23.90;99993.00;;;;337202;28;87335;-87
2022/07/13 00:13:47;;;;;;;;;;;23.80;61.30;23.90;99986.00;;;;336526;28;87704;-88
2022/07/13 00:13:59;;;;;;;;;;;23.80;61.30;23.90;99984.00;;;;336209;28;88838;-87
2022/07/13 00:14:11;;;;;;;;;;;23.80;61.30;23.80;99987.00;;;;337132;28;87672;-88
2022/07/13 00:14:23;;;;;;;;;;;23.80;61.40;23.80;99987.00;;;;338519;28;87102;-88
2022/07/13 00:14:34;;;;;;;;;;;23.80;61.40;23.80;99986.00;;;;340406;28;88462;-88
2022/07/13 00:14:46;;;;;;;;;;;23.80;61.30;23.80;99983.00;;;;340051;28;87061;-88
2022/07/13 00:14:58;;;;;;;;;;;23.80;61.40;23.70;99987.00;;;;339006;28;89619;-87
2022/07/13 00:15:10;;;;;;;;;;;23.80;61.40;23.70;99983.00;;;;337607;28;86813;-87
2022/07/13 00:15:22;;;;;;;;;;;23.80;61.30;23.70;99989.00;;;;339133;28;88874;-87
2022/07/13 00:15:34;;;;;;;;;;;23.80;61.20;23.70;99990.00;;;;338546;28;88371;-87
2022/07/13 00:15:46;;;;;;;;;;;23.80;61.20;23.70;99992.00;;;;339098;28;89029;-87
2022/07/13 00:15:57;;;;;;;;;;;23.80;61.30;23.70;99992.00;;;;337540;28;86162;-88
2022/07/13 00:16:09;;;;;;;;;;;23.80;61.20;23.70;99982.00;;;;337835;28;86651;-88
2022/07/13 00:16:21;;;;;;;;;;;23.80;61.20;23.70;99990.00;;;;337302;28;87420;-88
2022/07/13 00:16:33;;;;;;;;;;;23.80;61.20;23.80;99986.00;;;;336478;28;87805;-87
2022/07/13 00:16:45;;;;;;;;;;;23.80;61.50;23.80;99985.00;;;;337465;28;87058;-87
2022/07/13 00:16:57;;;;;;;;;;;23.80;61.40;23.70;99988.00;;;;337769;28;88876;-88
2022/07/13 00:17:09;;;;;;;;;;;23.80;61.30;23.70;99987.00;;;;338991;28;87345;-88
2022/07/13 00:17:21;;;;;;;;;;;23.70;61.20;23.70;99982.00;;;;341752;28;87836;-88
2022/07/13 00:17:33;;;;;;;;;;;23.80;61.20;23.70;99977.00;;;;336224;28;86852;-88
2022/07/13 00:17:45;;;;;;;;;;;23.80;61.20;23.70;99989.00;;;;338864;28;90247;-87
2022/07/13 00:17:56;;;;;;;;;;;23.70;61.10;23.70;99980.00;;;;337551;28;86052;-86
2022/07/13 00:18:08;;;;;;;;;;;23.70;61.20;23.70;99982.00;;;;336496;28;86956;-87
2022/07/13 00:18:20;;;;;;;;;;;23.70;61.30;23.70;99986.00;;;;336100;28;87323;-88
2022/07/13 00:18:32;;;;;;;;;;;23.70;61.20;23.70;99980.00;;;;336260;28;88627;-88
2022/07/13 00:18:44;;;;;;;;;;;23.70;61.20;23.70;99990.00;;;;338639;28;86059;-88
2022/07/13 00:18:56;;;;;;;;;;;23.70;61.40;23.70;99990.00;;;;339114;28;88711;-88
2022/07/13 00:19:08;;;;;;;;;;;23.70;61.60;23.70;99988.00;;;;336243;28;86850;-88
2022/07/13 00:19:19;;;;;;;;;;;23.70;61.60;23.60;99984.00;;;;337659;28;88406;-87
2022/07/13 00:19:31;;;;;;;;;;;23.70;61.50;23.70;99980.00;;;;338639;28;86157;-87
2022/07/13 00:19:43;;;;;;;;;;;23.70;61.50;23.70;99981.00;;;;336390;28;86876;-88
2022/07/13 00:19:55;;;;;;;;;;;23.70;61.40;23.70;99981.00;;;;337394;28;86297;-88
2022/07/13 00:20:07;;;;;;;;;;;23.70;61.40;23.70;99987.00;;;;337836;28;86726;-87
2022/07/13 00:20:19;;;;;;;;;;;23.70;61.30;23.80;99979.00;;;;336053;28;86240;-88
2022/07/13 00:20:31;;;;;;;;;;;23.70;61.30;23.80;99992.00;;;;336428;28;87694;-88
2022/07/13 00:20:43;;;;;;;;;;;23.70;61.30;23.80;99990.00;;;;337630;28;85977;-88
2022/07/13 00:20:55;;;;;;;;;;;23.70;61.30;23.70;99986.00;;;;336319;28;91162;-88
2022/07/13 00:21:07;;;;;;;;;;;23.60;61.50;23.80;99990.00;;;;334939;29;86825;-88
2022/07/13 00:21:19;;;;;;;;;;;23.70;61.60;23.70;99989.00;;;;337564;28;91938;-88
2022/07/13 00:21:30;;;;;;;;;;;23.70;61.50;23.80;99993.00;;;;336164;28;87123;-88
2022/07/13 00:21:43;;;;;;;;;;;23.70;61.40;23.80;99982.00;;;;337568;28;89069;-87
2022/07/13 00:21:55;;;;;;;;;;;23.60;61.30;23.80;99989.00;;;;337615;28;87960;-87
2022/07/13 00:22:06;;;;;;;;;;;23.70;61.50;23.80;99987.00;;;;339072;28;90520;-88
2022/07/13 00:22:18;;;;;;;;;;;23.70;61.40;23.90;99993.00;;;;337553;28;88523;-87
2022/07/13 00:22:31;;;;;;;;;;;23.70;61.50;23.90;99990.00;;;;339127;28;90862;-88
2022/07/13 00:22:43;;;;;;;;;;;23.70;61.30;23.80;99983.00;;;;337528;28;86856;-87
2022/07/13 00:22:55;;;;;;;;;;;23.70;61.40;23.80;99995.00;;;;336448;28;88054;-87
2022/07/13 00:23:08;;;;;;;;;;;23.70;61.30;23.80;99993.00;;;;335998;28;87979;-88
2022/07/13 00:23:20;;;;;;;;;;;23.70;61.40;23.70;99991.00;;;;336266;28;89385;-87
2022/07/13 00:23:31;;;;;;;;;;;23.70;61.60;23.70;99986.00;;;;333602;29;87028;-87
2022/07/13 00:23:43;;;;;;;;;;;23.70;61.90;23.60;99986.00;;;;335080;29;91426;-87
2022/07/13 00:23:55;;;;;;;;;;;23.70;61.70;23.70;99992.00;;;;334933;29;86148;-88
2022/07/13 00:24:07;;;;;;;;;;;23.70;61.50;23.70;99995.00;;;;335145;29;87115;-87
2022/07/13 00:24:18;;;;;;;;;;;23.70;61.40;23.80;99994.00;;;;338118;28;87036;-88
2022/07/13 00:24:30;;;;;;;;;;;23.70;62.00;23.80;99993.00;;;;339430;28;88841;-87
2022/07/13 00:24:42;;;;;;;;;;;23.70;61.90;23.80;99994.00;;;;337678;28;86666;-87
2022/07/13 00:24:54;;;;;;;;;;;23.70;61.60;23.80;99983.00;;;;338990;28;90902;-88
2022/07/13 00:25:06;;;;;;;;;;;23.70;61.50;23.80;99990.00;;;;338770;28;86160;-88
2022/07/13 00:25:18;;;;;;;;;;;23.70;62.00;23.80;99994.00;;;;337601;28;89084;-87
2022/07/13 00:25:30;;;;;;;;;;;23.70;61.50;23.70;99994.00;;;;338756;28;87427;-87
2022/07/13 00:25:42;;;;;;;;;;;23.70;61.70;23.70;99988.00;;;;340401;28;88829;-88
2022/07/13 00:25:54;;;;;;;;;;;23.70;62.00;23.70;99997.00;;;;341462;27;87535;-87
2022/07/13 00:26:05;;;;;;;;;;;23.70;62.10;23.80;99995.00;;;;340484;28;87857;-87
2022/07/13 00:26:17;;;;;;;;;;;23.70;61.90;23.80;99994.00;;;;344689;28;86213;-88
2022/07/13 00:26:29;;;;;;;;;;;23.70;61.50;23.80;99994.00;;;;344663;28;88716;-87
2022/07/13 00:26:41;;;;;;;;;;;23.70;61.50;23.70;100002.00;;;;342692;28;86952;-88
2022/07/13 00:26:53;;;;;;;;;;;23.70;61.80;23.70;99996.00;;;;338839;28;87665;-87
2022/07/13 00:27:04;;;;;;;;;;;23.70;61.90;23.70;99991.00;;;;336141;28;87021;-88
2022/07/13 00:27:17;;;;;;;;;;;23.70;61.90;23.70;99991.00;;;;336391;28;87924;-87
2022/07/13 00:27:28;;;;;;;;;;;23.70;62.20;23.70;99988.00;;;;337264;28;86817;-87
2022/07/13 00:27:40;;;;;;;;;;;23.70;61.90;23.80;99994.00;;;;337659;28;88839;-87
2022/07/13 00:27:52;;;;;;;;;;;23.70;61.90;23.90;99994.00;;;;337540;28;86202;-88
2022/07/13 00:28:04;;;;;;;;;;;23.70;61.70;23.90;99998.00;;;;335163;29;90222;-88
2022/07/13 00:28:16;;;;;;;;;;;23.70;61.80;23.90;99996.00;;;;336073;28;87030;-88
2022/07/13 00:28:28;;;;;;;;;;;23.70;61.90;23.80;99996.00;;;;336340;28;88451;-88
2022/07/13 00:28:40;;;;;;;;;;;23.70;61.90;23.80;99987.00;;;;334948;29;86035;-88
2022/07/13 00:28:52;;;;;;;;;;;23.70;61.90;23.80;99996.00;;;;336411;28;86819;-87
2022/07/13 00:29:04;;;;;;;;;;;23.70;61.80;23.80;99997.00;;;;337422;28;86519;-87
2022/07/13 00:29:15;;;;;;;;;;;23.70;61.80;23.80;99998.00;;;;337480;28;90836;-88
2022/07/13 00:29:27;;;;;;;;;;;23.70;61.70;23.80;99997.00;;;;336143;28;87906;-88
2022/07/13 00:29:39;;;;;;;;;;;23.70;61.90;23.80;100001.00;;;;335164;28;89106;-87
2022/07/13 00:29:51;;;;;;;;;;;23.70;61.90;23.80;99996.00;;;;338890;28;86240;-88
2022/07/13 00:30:03;;;;;;;;;;;23.70;61.80;23.80;99994.00;;;;337792;28;86762;-87
2022/07/13 00:30:15;;;;;;;;;;;23.70;61.90;23.80;99997.00;;;;339391;28;87162;-88
2022/07/13 00:30:26;;;;;;;;;;;23.70;61.90;23.80;99994.00;;;;336404;28;88890;-88
2022/07/13 00:30:38;;;;;;;;;;;23.70;61.90;23.70;99996.00;;;;343052;28;87046;-88
2022/07/13 00:30:50;;;;;;;;;;;23.70;62.40;23.70;99997.00;;;;343223;28;88945;-88
2022/07/13 00:31:02;;;;;;;;;;;23.70;62.40;23.70;99993.00;;;;336170;28;87534;-87
2022/07/13 00:31:14;;;;;;;;;;;23.70;62.30;23.70;99990.00;;;;343140;28;91131;-88
2022/07/13 00:31:26;;;;;;;;;;;23.70;62.50;23.70;99987.00;;;;335938;28;87011;-87
2022/07/13 00:31:38;;;;;;;;;;;23.70;62.50;23.70;99990.00;;;;336385;28;88973;-88
2022/07/13 00:31:50;;;;;;;;;;;23.70;62.00;23.70;99997.00;;;;336229;28;86143;-88
2022/07/13 00:32:02;;;;;;;;;;;23.70;61.90;23.70;99993.00;;;;339184;28;86641;-88
2022/07/13 00:32:15;;;;;;;;;;;23.70;61.90;23.70;99992.00;;;;334817;28;87087;-87
2022/07/13 00:32:27;;;;;;;;;;;23.70;61.90;23.70;99994.00;;;;334898;28;90561;-88
2022/07/13 00:32:39;;;;;;;;;;;23.70;62.80;23.70;99991.00;;;;337508;28;86325;-88
2022/07/13 00:32:51;;;;;;;;;;;23.70;62.30;23.70;99994.00;;;;337770;28;88732;-88
2022/07/13 00:33:05;;;;;;;;;;;23.70;62.20;23.70;99986.00;;;;337555;28;86938;-88
2022/07/13 00:33:17;;;;;;;;;;;23.70;62.10;23.70;99995.00;;;;336303;28;88905;-87
2022/07/13 00:33:28;;;;;;;;;;;23.60;62.00;23.70;99997.00;;;;337153;28;87166;-87
2022/07/13 00:33:40;;;;;;;;;;;23.70;61.90;23.70;99999.00;;;;338896;28;90426;-87
2022/07/13 00:33:52;;;;;;;;;;;23.60;61.80;23.70;99996.00;;;;337498;28;86183;-87
2022/07/13 00:34:04;;;;;;;;;;;23.70;62.10;23.70;99997.00;;;;336581;28;86967;-87
2022/07/13 00:34:16;;;;;;;;;;;23.60;62.30;23.70;99997.00;;;;334900;29;87089;-88
2022/07/13 00:34:30;;;;;;;;;;;23.60;62.40;23.70;100002.00;;;;336553;28;87673;-88
2022/07/13 00:34:42;;;;;;;;;;;23.60;63.10;23.80;99995.00;;;;336106;28;87245;-88
2022/07/13 00:34:54;;;;;;;;;;;23.60;62.50;23.70;100000.00;;;;336095;28;90159;-88
2022/07/13 00:35:06;;;;;;;;;;;23.60;62.50;23.70;99991.00;;;;337572;28;86154;-87
2022/07/13 00:35:18;;;;;;;;;;;23.60;62.60;23.70;100000.00;;;;337864;28;88345;-88
2022/07/13 00:35:30;;;;;;;;;;;23.60;62.80;23.70;100007.00;;;;334791;29;86130;-87
2022/07/13 00:35:42;;;;;;;;;;;23.60;62.20;23.70;99995.00;;;;336278;28;89628;-88
2022/07/13 00:35:53;;;;;;;;;;;23.60;62.10;23.70;99998.00;;;;334701;29;88283;-87
2022/07/13 00:36:05;;;;;;;;;;;23.60;62.00;23.70;100003.00;;;;337553;28;88108;-87
2022/07/13 00:36:17;;;;;;;;;;;23.60;62.40;23.70;99997.00;;;;336165;28;86585;-88
2022/07/13 00:36:29;;;;;;;;;;;23.60;62.60;23.70;99994.00;;;;335063;28;90169;-87
2022/07/13 00:36:41;;;;;;;;;;;23.60;62.60;23.60;99989.00;;;;336109;28;87617;-87
2022/07/13 00:36:53;;;;;;;;;;;23.60;63.00;23.60;99996.00;;;;337723;28;88490;-88
2022/07/13 00:37:04;;;;;;;;;;;23.60;63.10;23.60;99997.00;;;;337536;28;86243;-88
2022/07/13 00:37:16;;;;;;;;;;;23.60;63.10;23.60;99990.00;;;;335060;28;90160;-87
2022/07/13 00:37:28;;;;;;;;;;;23.60;62.60;23.60;99997.00;;;;336058;28;87287;-87
2022/07/13 00:37:40;;;;;;;;;;;23.60;62.70;23.60;99994.00;;;;335006;29;90967;-88
2022/07/13 00:37:52;;;;;;;;;;;23.60;62.80;23.70;100002.00;;;;337535;28;86152;-88
2022/07/13 00:38:03;;;;;;;;;;;23.50;62.70;23.80;99992.00;;;;337685;28;88140;-88
2022/07/13 00:38:15;;;;;;;;;;;23.60;63.00;23.70;99996.00;;;;335088;28;87112;-88
2022/07/13 00:38:28;;;;;;;;;;;23.60;62.90;23.70;99985.00;;;;337707;28;87760;-87
2022/07/13 00:38:40;;;;;;;;;;;23.60;63.50;23.70;99996.00;;;;339992;28;87069;-87
2022/07/13 00:38:52;;;;;;;;;;;23.60;62.80;23.70;99996.00;;;;338733;28;90094;-87
2022/07/13 00:39:03;;;;;;;;;;;23.60;62.60;23.70;99997.00;;;;337463;28;86958;-88
2022/07/13 00:39:15;;;;;;;;;;;23.60;62.50;23.60;99995.00;;;;339098;28;87388;-88
2022/07/13 00:39:27;;;;;;;;;;;23.60;62.80;23.60;99983.00;;;;341357;28;88794;-87
2022/07/13 00:39:39;;;;;;;;;;;23.60;63.10;23.60;99994.00;;;;339060;28;88852;-88
2022/07/13 00:39:51;;;;;;;;;;;23.60;63.30;23.50;100000.00;;;;340159;28;86998;-87
2022/07/13 00:40:03;;;;;;;;;;;23.50;63.40;23.70;99997.00;;;;346024;28;89339;-87
2022/07/13 00:40:14;;;;;;;;;;;23.50;63.10;23.70;100004.00;;;;337495;28;86879;-87
2022/07/13 00:40:26;;;;;;;;;;;23.50;63.10;23.70;99994.00;;;;340095;28;89945;-88
2022/07/13 00:40:38;;;;;;;;;;;23.60;63.30;23.80;99996.00;;;;337413;28;87740;-87
2022/07/13 00:40:50;;;;;;;;;;;23.60;63.30;23.70;100000.00;;;;337748;28;88628;-88
2022/07/13 00:41:04;;;;;;;;;;;23.60;63.10;23.70;99998.00;;;;337343;28;86924;-88
2022/07/13 00:41:16;;;;;;;;;;;23.60;62.90;23.70;99992.00;;;;336346;28;89441;-88
2022/07/13 00:41:28;;;;;;;;;;;23.60;62.90;23.60;99989.00;;;;334771;29;86896;-87
2022/07/13 00:41:48;;;;;;;;;;;23.60;63.10;23.60;99992.00;;;;333708;29;91145;-88
2022/07/13 00:42:00;;;;;;;;;;;23.60;63.30;23.50;99996.00;;;;336196;28;87000;-87
2022/07/13 00:42:12;;;;;;;;;;;23.60;63.30;23.50;99995.00;;;;336740;28;88093;-86
2022/07/13 00:42:24;;;;;;;;;;;23.50;63.40;23.50;99990.00;;;;336241;28;86828;-88
2022/07/13 00:42:36;;;;;;;;;;;23.50;63.00;23.60;100000.00;;;;336462;28;86762;-87
2022/07/13 00:42:47;;;;;;;;;;;23.50;62.70;23.60;99991.00;;;;337127;28;87915;-87
2022/07/13 00:42:59;;;;;;;;;;;23.50;62.80;23.60;99991.00;;;;338716;28;90820;-88
2022/07/13 00:43:11;;;;;;;;;;;23.50;63.30;23.50;99996.00;;;;338782;28;86833;-88
2022/07/13 00:43:23;;;;;;;;;;;23.50;63.30;23.60;99997.00;;;;340249;28;88299;-87
2022/07/13 00:43:35;;;;;;;;;;;23.50;63.10;23.50;99996.00;;;;340118;28;86892;-88
2022/07/13 00:43:46;;;;;;;;;;;23.50;63.10;23.60;100003.00;;;;340396;28;87401;-88
2022/07/13 00:44:10;;;;;;;;;;;23.50;63.00;23.70;100001.00;;;;337542;28;85290;-87
2022/07/13 00:44:22;;;;;;;;;;;23.50;63.00;23.60;100003.00;;;;339102;28;88926;-87
2022/07/13 00:44:34;;;;;;;;;;;23.50;63.10;23.60;99996.00;;;;340090;28;88405;-88
2022/07/13 00:44:46;;;;;;;;;;;23.50;63.00;23.60;99995.00;;;;337712;28;90010;-88
2022/07/13 00:44:58;;;;;;;;;;;23.50;63.10;23.50;99994.00;;;;337546;28;85961;-88
2022/07/13 00:45:10;;;;;;;;;;;23.50;63.10;23.40;99999.00;;;;336199;28;89956;-87
2022/07/13 00:45:22;;;;;;;;;;;23.50;63.10;23.30;100004.00;;;;337588;28;86837;-87
2022/07/13 00:45:34;;;;;;;;;;;23.50;63.20;23.30;100004.00;;;;344196;28;90179;-88
2022/07/13 00:45:46;;;;;;;;;;;23.50;63.50;23.40;100001.00;;;;341102;28;87464;-88
2022/07/13 00:45:58;;;;;;;;;;;23.50;63.70;23.40;100000.00;;;;343303;28;87404;-87
2022/07/13 00:46:10;;;;;;;;;;;23.40;63.50;23.50;99998.00;;;;337504;28;85370;-87
2022/07/13 00:46:22;;;;;;;;;;;23.50;63.50;23.50;99996.00;;;;336419;28;88608;-88
2022/07/13 00:46:35;;;;;;;;;;;23.50;63.70;23.50;99994.00;;;;338882;28;86738;-88
2022/07/13 00:46:51;;;;;;;;;;;23.50;63.60;23.50;100002.00;;;;340070;28;89017;-87
2022/07/13 00:47:03;;;;;;;;;;;23.50;63.30;23.50;100000.00;;;;337298;28;86918;-87
2022/07/13 00:47:15;;;;;;;;;;;23.40;63.30;23.50;100000.00;;;;334804;28;88901;-86
2022/07/13 00:47:30;;;;;;;;;;;23.50;63.30;23.60;100003.00;;;;336244;28;85970;-87
2022/07/13 00:47:42;;;;;;;;;;;23.40;63.30;23.50;99995.00;;;;335429;28;90762;-88
2022/07/13 00:47:54;;;;;;;;;;;23.50;63.30;23.50;100000.00;;;;334790;28;87008;-87
2022/07/13 00:48:06;;;;;;;;;;;23.40;63.20;23.50;100001.00;;;;337443;28;88794;-87
2022/07/13 00:48:18;;;;;;;;;;;23.40;63.60;23.60;99999.00;;;;337448;28;86400;-88
2022/07/13 00:48:30;;;;;;;;;;;23.40;63.20;23.60;99996.00;;;;337704;28;88745;-88
2022/07/13 00:48:41;;;;;;;;;;;23.40;63.40;23.50;99993.00;;;;336243;28;86855;-87
2022/07/13 00:48:53;;;;;;;;;;;23.40;63.50;23.60;99997.00;;;;336335;28;88969;-87
2022/07/13 00:49:05;;;;;;;;;;;23.50;63.50;23.50;99995.00;;;;336133;28;86936;-87
2022/07/13 00:49:17;;;;;;;;;;;23.50;63.50;23.60;99994.00;;;;336328;28;90732;-87
2022/07/13 00:49:29;;;;;;;;;;;23.40;63.30;23.50;99994.00;;;;334799;29;86959;-88
2022/07/13 00:49:41;;;;;;;;;;;23.40;63.20;23.60;99994.00;;;;336284;28;89846;-87
2022/07/13 00:49:53;;;;;;;;;;;23.40;63.20;23.50;99997.00;;;;337601;28;86792;-88
2022/07/13 00:50:06;;;;;;;;;;;23.40;63.60;23.50;99986.00;;;;337675;28;88179;-88
2022/07/13 00:50:18;;;;;;;;;;;23.40;63.50;23.50;99998.00;;;;334474;29;86347;-88
2022/07/13 00:50:30;;;;;;;;;;;23.40;63.60;23.40;99986.00;;;;334988;29;87797;-87
2022/07/13 00:50:41;;;;;;;;;;;23.40;63.60;23.40;100003.00;;;;334783;28;87196;-88
2022/07/13 00:50:53;;;;;;;;;;;23.40;63.80;23.40;100004.00;;;;333689;28;90537;-87
2022/07/13 00:51:05;;;;;;;;;;;23.40;63.90;23.40;99993.00;;;;339336;27;87103;-87
2022/07/13 00:51:17;;;;;;;;;;;23.40;63.90;23.30;99997.00;;;;345906;28;89759;-87
2022/07/13 00:51:31;;;;;;;;;;;23.40;63.90;23.40;100005.00;;;;347177;28;86889;-88
2022/07/13 00:51:43;;;;;;;;;;;23.30;63.90;23.40;100000.00;;;;347330;28;90601;-88
2022/07/13 00:51:55;;;;;;;;;;;23.40;63.50;23.50;99992.00;;;;343147;28;86045;-87
2022/07/13 00:52:06;;;;;;;;;;;23.40;64.00;23.50;100000.00;;;;343155;28;89814;-88
2022/07/13 00:52:18;;;;;;;;;;;23.40;63.50;23.50;100002.00;;;;343074;28;86185;-87
2022/07/13 00:52:30;;;;;;;;;;;23.40;63.70;23.40;100000.00;;;;341973;28;87820;-87
2022/07/13 00:52:44;;;;;;;;;;;23.40;63.80;23.50;99994.00;;;;344374;28;86807;-87
2022/07/13 00:52:56;;;;;;;;;;;23.40;63.70;23.40;100002.00;;;;343293;28;88481;-87
2022/07/13 00:53:09;;;;;;;;;;;23.40;64.20;23.50;99998.00;;;;344389;28;86826;-86
2022/07/13 00:53:20;;;;;;;;;;;23.40;63.50;23.50;99998.00;;;;344470;28;90589;-87
2022/07/13 00:53:35;;;;;;;;;;;23.40;63.50;23.50;100000.00;;;;342850;28;88920;-87
2022/07/13 00:53:46;;;;;;;;;;;23.40;63.50;23.50;99996.00;;;;342746;28;91032;-87
2022/07/13 00:53:59;;;;;;;;;;;23.40;63.40;23.50;99994.00;;;;345730;28;87078;-87
2022/07/13 00:54:11;;;;;;;;;;;23.30;63.40;23.40;99996.00;;;;345964;28;88110;-87
2022/07/13 00:54:28;;;;;;;;;;;23.40;63.70;23.40;99992.00;;;;342830;28;86158;-87
2022/07/13 00:54:41;;;;;;;;;;;23.30;63.90;23.50;100004.00;;;;344623;28;87525;-88
2022/07/13 00:54:53;;;;;;;;;;;23.30;63.60;23.50;100007.00;;;;344342;28;86220;-87
2022/07/13 00:55:06;;;;;;;;;;;23.30;63.50;23.50;100000.00;;;;344555;28;87733;-87
2022/07/13 00:55:18;;;;;;;;;;;23.30;63.80;23.60;99998.00;;;;341670;28;86895;-87
2022/07/13 00:55:29;;;;;;;;;;;23.30;63.90;23.60;99994.00;;;;344565;28;88476;-87
2022/07/13 00:55:41;;;;;;;;;;;23.40;64.00;23.50;99993.00;;;;345800;28;86812;-87
2022/07/13 00:55:53;;;;;;;;;;;23.40;64.50;23.60;99995.00;;;;343197;28;88705;-88
2022/07/13 00:56:05;;;;;;;;;;;23.30;63.90;23.50;100000.00;;;;345734;28;86866;-89
2022/07/13 00:56:17;;;;;;;;;;;23.30;63.70;23.50;100001.00;;;;344501;28;88400;-87
2022/07/13 00:56:29;;;;;;;;;;;23.30;63.90;23.40;99998.00;;;;345820;28;86084;-87
2022/07/13 00:56:41;;;;;;;;;;;23.30;63.90;23.50;100006.00;;;;345767;28;89164;-87
2022/07/13 00:56:53;;;;;;;;;;;23.30;63.60;23.40;100001.00;;;;342800;28;87201;-88
2022/07/13 00:57:05;;;;;;;;;;;23.40;63.60;23.40;99996.00;;;;343360;28;87093;-88
2022/07/13 00:57:16;;;;;;;;;;;23.30;63.90;23.50;100000.00;;;;342941;28;88250;-87
2022/07/13 00:57:28;;;;;;;;;;;23.30;63.70;23.50;100004.00;;;;344612;28;88512;-88
2022/07/13 00:57:40;;;;;;;;;;;23.30;63.80;23.50;100000.00;;;;342937;28;86907;-87
2022/07/13 00:57:52;;;;;;;;;;;23.30;63.90;23.50;100004.00;;;;343148;28;87868;-88
2022/07/13 00:58:03;;;;;;;;;;;23.30;63.80;23.50;100003.00;;;;344331;28;88316;-87
2022/07/13 00:58:15;;;;;;;;;;;23.30;63.80;23.50;99999.00;;;;345676;28;90245;-87
2022/07/13 00:58:27;;;;;;;;;;;23.30;63.90;23.50;100003.00;;;;344143;28;86689;-87
2022/07/13 00:58:39;;;;;;;;;;;23.30;63.90;23.40;100007.00;;;;344735;28;85874;-87
2022/07/13 00:58:50;;;;;;;;;;;23.40;64.50;23.40;100001.00;;;;344218;28;87085;-88
2022/07/13 00:59:02;;;;;;;;;;;23.30;64.60;23.40;100005.00;;;;345974;28;89742;-88
2022/07/13 00:59:14;;;;;;;;;;;23.30;64.20;23.40;100000.00;;;;344750;28;87161;-87
2022/07/13 00:59:26;;;;;;;;;;;23.30;64.20;23.30;100007.00;;;;344877;28;88423;-87